sensor_id;sensor_type;location;lat;lon;timestamp;temperature;humidity
23520;DHT22;11936;50.820;4.336;2023-12-04T00:00:46;4.30;99.90
23520;DHT22;11936;50.820;4.336;2023-12-04T00:03:12;4.30;99.90
23520;DHT22;11936;50.820;4.336;2023-12-04T00:05:38;4.20;99.90
23520;DHT22;11936;50.820;4.336;2023-12-04T00:08:03;4.20;99.90
23520;DHT22;11936;50.820;4.336;2023-12-04T00:10:29;4.10;99.90
23520;DHT22;11936;50.820;4.336;2023-12-04T00:12:55;4.00;99.90
23520;DHT22;11936;50.820;4.336;2023-12-04T00:15:20;4.10;99.90
23520;DHT22;11936;50.820;4.336;2023-12-04T00:17:47;4.00;99.90
23520;DHT22;11936;50.820;4.336;2023-12-04T00:20:12;4.20;99.90
23520;DHT22;11936;50.820;4.336;2023-12-04T00:22:38;4.10;99.90
23520;DHT22;11936;50.820;4.336;2023-12-04T00:25:05;4.10;99.90
23520;DHT22;11936;50.820;4.336;2023-12-04T00:27:31;4.20;99.90
23520;DHT22;11936;50.820;4.336;2023-12-04T00:29:57;4.20;99.90
23520;DHT22;11936;50.820;4.336;2023-12-04T00:32:24;4.20;99.90
23520;DHT22;11936;50.820;4.336;2023-12-04T00:34:49;4.20;99.90
23520;DHT22;11936;50.820;4.336;2023-12-04T00:37:15;4.20;99.90
23520;DHT22;11936;50.820;4.336;2023-12-04T00:39:41;4.20;99.90
23520;DHT22;11936;50.820;4.336;2023-12-04T00:42:06;4.20;99.90
23520;DHT22;11936;50.820;4.336;2023-12-04T00:44:32;4.20;99.90
23520;DHT22;11936;50.820;4.336;2023-12-04T00:46:58;4.20;99.90
23520;DHT22;11936;50.820;4.336;2023-12-04T00:49:23;4.30;99.90
23520;DHT22;11936;50.820;4.336;2023-12-04T00:51:49;4.30;99.90
23520;DHT22;11936;50.820;4.336;2023-12-04T00:54:15;4.40;99.90
23520;DHT22;11936;50.820;4.336;2023-12-04T00:56:41;4.50;99.90
23520;DHT22;11936;50.820;4.336;2023-12-04T00:59:09;4.50;99.90
23520;DHT22;11936;50.820;4.336;2023-12-04T01:01:39;4.40;99.90
23520;DHT22;11936;50.820;4.336;2023-12-04T01:04:04;4.30;99.90
23520;DHT22;11936;50.820;4.336;2023-12-04T01:06:30;4.30;99.90
23520;DHT22;11936;50.820;4.336;2023-12-04T01:08:56;4.40;99.90
23520;DHT22;11936;50.820;4.336;2023-12-04T01:11:22;4.40;99.90
23520;DHT22;11936;50.820;4.336;2023-12-04T01:13:49;4.40;99.90
23520;DHT22;11936;50.820;4.336;2023-12-04T01:16:15;4.40;99.90
23520;DHT22;11936;50.820;4.336;2023-12-04T01:18:41;4.30;99.90
23520;DHT22;11936;50.820;4.336;2023-12-04T01:21:07;4.30;99.90
23520;DHT22;11936;50.820;4.336;2023-12-04T01:23:36;4.30;99.90
23520;DHT22;11936;50.820;4.336;2023-12-04T01:26:03;4.40;99.90
23520;DHT22;11936;50.820;4.336;2023-12-04T01:28:29;4.30;99.90
23520;DHT22;11936;50.820;4.336;2023-12-04T01:30:54;4.30;99.90
23520;DHT22;11936;50.820;4.336;2023-12-04T01:33:20;4.50;99.90
23520;DHT22;11936;50.820;4.336;2023-12-04T01:35:46;4.50;99.90
23520;DHT22;11936;50.820;4.336;2023-12-04T01:38:14;4.50;99.90
23520;DHT22;11936;50.820;4.336;2023-12-04T01:40:39;4.50;99.90
23520;DHT22;11936;50.820;4.336;2023-12-04T01:43:05;4.50;99.90
23520;DHT22;11936;50.820;4.336;2023-12-04T01:45:31;4.50;99.90
23520;DHT22;11936;50.820;4.336;2023-12-04T01:47:57;4.60;99.90
23520;DHT22;11936;50.820;4.336;2023-12-04T01:50:24;4.50;99.90
23520;DHT22;11936;50.820;4.336;2023-12-04T01:52:51;4.50;99.90
23520;DHT22;11936;50.820;4.336;2023-12-04T01:55:17;4.50;99.90
23520;DHT22;11936;50.820;4.336;2023-12-04T01:57:43;4.50;99.90
23520;DHT22;11936;50.820;4.336;2023-12-04T02:00:09;4.50;99.90
23520;DHT22;11936;50.820;4.336;2023-12-04T02:02:40;4.40;99.90
23520;DHT22;11936;50.820;4.336;2023-12-04T02:05:08;4.40;99.90
23520;DHT22;11936;50.820;4.336;2023-12-04T02:07:35;4.40;99.90
23520;DHT22;11936;50.820;4.336;2023-12-04T02:10:03;4.50;99.90
23520;DHT22;11936;50.820;4.336;2023-12-04T02:12:29;4.40;99.90
23520;DHT22;11936;50.820;4.336;2023-12-04T02:14:55;4.50;99.90
23520;DHT22;11936;50.820;4.336;2023-12-04T02:17:22;4.50;99.90
23520;DHT22;11936;50.820;4.336;2023-12-04T02:19:48;4.50;99.90
23520;DHT22;11936;50.820;4.336;2023-12-04T02:22:14;4.50;99.90
23520;DHT22;11936;50.820;4.336;2023-12-04T02:24:40;4.60;99.90
23520;DHT22;11936;50.820;4.336;2023-12-04T02:27:18;4.60;99.90
23520;DHT22;11936;50.820;4.336;2023-12-04T02:29:49;4.60;99.90
23520;DHT22;11936;50.820;4.336;2023-12-04T02:32:19;4.40;99.90
23520;DHT22;11936;50.820;4.336;2023-12-04T02:34:45;4.40;99.90
23520;DHT22;11936;50.820;4.336;2023-12-04T02:37:14;4.50;99.90
23520;DHT22;11936;50.820;4.336;2023-12-04T02:39:40;4.40;99.90
23520;DHT22;11936;50.820;4.336;2023-12-04T02:42:06;4.50;99.90
23520;DHT22;11936;50.820;4.336;2023-12-04T02:44:32;4.40;99.90
23520;DHT22;11936;50.820;4.336;2023-12-04T02:46:57;4.40;99.90
23520;DHT22;11936;50.820;4.336;2023-12-04T02:49:23;4.30;99.90
23520;DHT22;11936;50.820;4.336;2023-12-04T02:51:49;4.20;99.90
23520;DHT22;11936;50.820;4.336;2023-12-04T02:54:14;4.20;99.90
23520;DHT22;11936;50.820;4.336;2023-12-04T02:56:40;4.20;99.90
23520;DHT22;11936;50.820;4.336;2023-12-04T02:59:06;4.20;99.90
23520;DHT22;11936;50.820;4.336;2023-12-04T03:01:31;4.40;99.90
23520;DHT22;11936;50.820;4.336;2023-12-04T03:03:57;4.40;99.90
23520;DHT22;11936;50.820;4.336;2023-12-04T03:06:22;4.40;99.90
23520;DHT22;11936;50.820;4.336;2023-12-04T03:08:48;4.50;99.90
23520;DHT22;11936;50.820;4.336;2023-12-04T03:11:14;4.60;99.90
23520;DHT22;11936;50.820;4.336;2023-12-04T03:13:39;4.70;99.90
23520;DHT22;11936;50.820;4.336;2023-12-04T03:16:05;4.70;99.90
23520;DHT22;11936;50.820;4.336;2023-12-04T03:18:31;4.60;99.90
23520;DHT22;11936;50.820;4.336;2023-12-04T03:20:56;4.60;99.90
23520;DHT22;11936;50.820;4.336;2023-12-04T03:23:22;4.60;99.90
23520;DHT22;11936;50.820;4.336;2023-12-04T03:25:48;4.60;99.90
23520;DHT22;11936;50.820;4.336;2023-12-04T03:28:13;4.60;99.90
23520;DHT22;11936;50.820;4.336;2023-12-04T03:30:41;4.60;99.90
23520;DHT22;11936;50.820;4.336;2023-12-04T03:33:09;4.70;99.90
23520;DHT22;11936;50.820;4.336;2023-12-04T03:35:35;4.70;99.90
23520;DHT22;11936;50.820;4.336;2023-12-04T03:38:00;4.60;99.90
23520;DHT22;11936;50.820;4.336;2023-12-04T03:40:26;4.50;99.90
23520;DHT22;11936;50.820;4.336;2023-12-04T03:42:51;4.60;99.90
23520;DHT22;11936;50.820;4.336;2023-12-04T03:45:17;4.70;99.90
23520;DHT22;11936;50.820;4.336;2023-12-04T03:47:43;4.70;99.90
23520;DHT22;11936;50.820;4.336;2023-12-04T03:50:08;4.70;99.90
23520;DHT22;11936;50.820;4.336;2023-12-04T03:52:34;4.70;99.90
23520;DHT22;11936;50.820;4.336;2023-12-04T03:55:00;4.70;99.90
23520;DHT22;11936;50.820;4.336;2023-12-04T03:57:25;4.80;99.90
23520;DHT22;11936;50.820;4.336;2023-12-04T03:59:51;4.80;99.90
23520;DHT22;11936;50.820;4.336;2023-12-04T04:02:16;4.60;99.90
23520;DHT22;11936;50.820;4.336;2023-12-04T04:04:42;4.50;99.90
23520;DHT22;11936;50.820;4.336;2023-12-04T04:07:08;4.40;99.90
23520;DHT22;11936;50.820;4.336;2023-12-04T04:09:34;4.60;99.90
23520;DHT22;11936;50.820;4.336;2023-12-04T04:12:00;4.70;99.90
23520;DHT22;11936;50.820;4.336;2023-12-04T04:14:25;4.80;99.90
23520;DHT22;11936;50.820;4.336;2023-12-04T04:16:51;4.70;99.90
23520;DHT22;11936;50.820;4.336;2023-12-04T04:19:16;4.70;99.90
23520;DHT22;11936;50.820;4.336;2023-12-04T04:21:42;4.70;99.90
23520;DHT22;11936;50.820;4.336;2023-12-04T04:24:08;4.60;99.90
23520;DHT22;11936;50.820;4.336;2023-12-04T04:26:34;4.80;99.90
23520;DHT22;11936;50.820;4.336;2023-12-04T04:28:59;4.90;99.90
23520;DHT22;11936;50.820;4.336;2023-12-04T04:31:25;4.70;99.90
23520;DHT22;11936;50.820;4.336;2023-12-04T04:33:50;4.80;99.90
23520;DHT22;11936;50.820;4.336;2023-12-04T04:36:16;4.80;99.90
23520;DHT22;11936;50.820;4.336;2023-12-04T04:38:44;4.90;99.90
23520;DHT22;11936;50.820;4.336;2023-12-04T04:41:14;4.80;99.90
23520;DHT22;11936;50.820;4.336;2023-12-04T04:43:41;4.70;99.90
23520;DHT22;11936;50.820;4.336;2023-12-04T04:46:07;4.70;99.90
23520;DHT22;11936;50.820;4.336;2023-12-04T04:48:33;4.70;99.90
23520;DHT22;11936;50.820;4.336;2023-12-04T04:50:59;4.70;99.90
23520;DHT22;11936;50.820;4.336;2023-12-04T04:53:25;4.80;99.90
23520;DHT22;11936;50.820;4.336;2023-12-04T04:55:50;4.70;99.90
23520;DHT22;11936;50.820;4.336;2023-12-04T04:58:16;4.80;99.90
23520;DHT22;11936;50.820;4.336;2023-12-04T05:00:43;4.80;99.90
23520;DHT22;11936;50.820;4.336;2023-12-04T05:03:09;4.60;99.90
23520;DHT22;11936;50.820;4.336;2023-12-04T05:05:35;4.60;99.90
23520;DHT22;11936;50.820;4.336;2023-12-04T05:08:01;4.60;99.90
23520;DHT22;11936;50.820;4.336;2023-12-04T05:10:26;4.70;99.90
23520;DHT22;11936;50.820;4.336;2023-12-04T05:12:52;4.70;99.90
23520;DHT22;11936;50.820;4.336;2023-12-04T05:15:17;4.90;99.90
23520;DHT22;11936;50.820;4.336;2023-12-04T05:17:43;4.80;99.90
23520;DHT22;11936;50.820;4.336;2023-12-04T05:20:09;4.70;99.90
23520;DHT22;11936;50.820;4.336;2023-12-04T05:22:35;4.90;99.90
23520;DHT22;11936;50.820;4.336;2023-12-04T05:25:01;4.90;99.90
23520;DHT22;11936;50.820;4.336;2023-12-04T05:27:26;4.90;99.90
23520;DHT22;11936;50.820;4.336;2023-12-04T05:29:52;4.90;99.90
23520;DHT22;11936;50.820;4.336;2023-12-04T05:32:18;4.80;99.90
23520;DHT22;11936;50.820;4.336;2023-12-04T05:34:43;4.90;99.90
23520;DHT22;11936;50.820;4.336;2023-12-04T05:37:09;4.80;99.90
23520;DHT22;11936;50.820;4.336;2023-12-04T05:39:34;4.90;99.90
23520;DHT22;11936;50.820;4.336;2023-12-04T05:42:00;4.90;99.90
23520;DHT22;11936;50.820;4.336;2023-12-04T05:44:26;4.90;99.90
23520;DHT22;11936;50.820;4.336;2023-12-04T05:46:51;4.90;99.90
23520;DHT22;11936;50.820;4.336;2023-12-04T05:49:17;4.90;99.90
23520;DHT22;11936;50.820;4.336;2023-12-04T05:51:43;5.00;99.90
23520;DHT22;11936;50.820;4.336;2023-12-04T05:54:08;4.90;99.90
23520;DHT22;11936;50.820;4.336;2023-12-04T05:56:34;4.90;99.90
23520;DHT22;11936;50.820;4.336;2023-12-04T05:59:00;4.90;99.90
23520;DHT22;11936;50.820;4.336;2023-12-04T06:01:26;4.90;99.90
23520;DHT22;11936;50.820;4.336;2023-12-04T06:03:51;4.80;99.90
23520;DHT22;11936;50.820;4.336;2023-12-04T06:06:17;4.90;99.90
23520;DHT22;11936;50.820;4.336;2023-12-04T06:08:43;4.80;99.90
23520;DHT22;11936;50.820;4.336;2023-12-04T06:11:08;4.90;99.90
23520;DHT22;11936;50.820;4.336;2023-12-04T06:13:34;4.90;99.90
23520;DHT22;11936;50.820;4.336;2023-12-04T06:15:59;5.00;99.90
23520;DHT22;11936;50.820;4.336;2023-12-04T06:18:25;5.00;99.90
23520;DHT22;11936;50.820;4.336;2023-12-04T06:20:51;5.00;99.90
23520;DHT22;11936;50.820;4.336;2023-12-04T06:23:16;5.00;99.90
23520;DHT22;11936;50.820;4.336;2023-12-04T06:25:43;5.00;99.90
23520;DHT22;11936;50.820;4.336;2023-12-04T06:28:09;5.00;99.90
23520;DHT22;11936;50.820;4.336;2023-12-04T06:30:35;4.80;99.90
23520;DHT22;11936;50.820;4.336;2023-12-04T06:33:01;4.70;99.90
23520;DHT22;11936;50.820;4.336;2023-12-04T06:35:27;4.70;99.90
23520;DHT22;11936;50.820;4.336;2023-12-04T06:37:54;4.80;99.90
23520;DHT22;11936;50.820;4.336;2023-12-04T06:40:21;4.70;99.90
23520;DHT22;11936;50.820;4.336;2023-12-04T06:42:47;4.70;99.90
23520;DHT22;11936;50.820;4.336;2023-12-04T06:45:16;4.80;99.90
23520;DHT22;11936;50.820;4.336;2023-12-04T06:47:43;4.80;99.90
23520;DHT22;11936;50.820;4.336;2023-12-04T06:50:11;4.80;99.90
23520;DHT22;11936;50.820;4.336;2023-12-04T06:52:37;4.70;99.90
23520;DHT22;11936;50.820;4.336;2023-12-04T06:55:03;4.80;99.90
23520;DHT22;11936;50.820;4.336;2023-12-04T06:57:28;4.80;99.90
23520;DHT22;11936;50.820;4.336;2023-12-04T06:59:54;4.90;99.90
23520;DHT22;11936;50.820;4.336;2023-12-04T07:02:20;4.90;99.90
23520;DHT22;11936;50.820;4.336;2023-12-04T07:04:45;4.90;99.90
23520;DHT22;11936;50.820;4.336;2023-12-04T07:07:11;4.80;99.90
23520;DHT22;11936;50.820;4.336;2023-12-04T07:09:37;4.80;99.90
23520;DHT22;11936;50.820;4.336;2023-12-04T07:12:03;4.90;99.90
23520;DHT22;11936;50.820;4.336;2023-12-04T07:14:29;4.90;99.90
23520;DHT22;11936;50.820;4.336;2023-12-04T07:16:54;4.80;99.90
23520;DHT22;11936;50.820;4.336;2023-12-04T07:19:20;4.90;99.90
23520;DHT22;11936;50.820;4.336;2023-12-04T07:21:46;4.90;99.90
23520;DHT22;11936;50.820;4.336;2023-12-04T07:24:12;4.90;99.90
23520;DHT22;11936;50.820;4.336;2023-12-04T07:26:37;5.00;99.90
23520;DHT22;11936;50.820;4.336;2023-12-04T07:29:03;4.90;99.90
23520;DHT22;11936;50.820;4.336;2023-12-04T07:31:29;5.00;99.90
23520;DHT22;11936;50.820;4.336;2023-12-04T07:33:55;5.00;99.90
23520;DHT22;11936;50.820;4.336;2023-12-04T07:36:21;5.10;99.90
23520;DHT22;11936;50.820;4.336;2023-12-04T07:38:47;5.10;99.90
23520;DHT22;11936;50.820;4.336;2023-12-04T07:41:13;5.00;99.90
23520;DHT22;11936;50.820;4.336;2023-12-04T07:43:39;5.00;99.90
23520;DHT22;11936;50.820;4.336;2023-12-04T07:46:05;5.00;99.90
23520;DHT22;11936;50.820;4.336;2023-12-04T07:48:31;5.00;99.90
23520;DHT22;11936;50.820;4.336;2023-12-04T07:50:57;4.90;99.90
23520;DHT22;11936;50.820;4.336;2023-12-04T07:53:22;4.90;99.90
23520;DHT22;11936;50.820;4.336;2023-12-04T07:55:48;4.80;99.90
23520;DHT22;11936;50.820;4.336;2023-12-04T07:58:19;5.10;99.90
23520;DHT22;11936;50.820;4.336;2023-12-04T08:00:44;5.10;99.90
23520;DHT22;11936;50.820;4.336;2023-12-04T08:03:10;5.10;99.90
23520;DHT22;11936;50.820;4.336;2023-12-04T08:05:36;5.20;99.90
23520;DHT22;11936;50.820;4.336;2023-12-04T08:08:02;5.10;99.90
23520;DHT22;11936;50.820;4.336;2023-12-04T08:10:27;5.10;99.90
23520;DHT22;11936;50.820;4.336;2023-12-04T08:12:53;5.00;99.90
23520;DHT22;11936;50.820;4.336;2023-12-04T10:17:57;4.90;99.90
23520;DHT22;11936;50.820;4.336;2023-12-04T10:20:23;4.90;99.90
23520;DHT22;11936;50.820;4.336;2023-12-04T10:23:00;4.90;99.90
23520;DHT22;11936;50.820;4.336;2023-12-04T10:25:28;5.00;99.90
23520;DHT22;11936;50.820;4.336;2023-12-04T10:28:10;4.90;99.90
23520;DHT22;11936;50.820;4.336;2023-12-04T10:30:36;4.90;99.90
23520;DHT22;11936;50.820;4.336;2023-12-04T10:33:04;5.10;99.90
23520;DHT22;11936;50.820;4.336;2023-12-04T10:35:32;4.90;99.90
23520;DHT22;11936;50.820;4.336;2023-12-04T10:37:58;4.70;99.90
23520;DHT22;11936;50.820;4.336;2023-12-04T10:40:29;4.70;99.90
23520;DHT22;11936;50.820;4.336;2023-12-04T10:43:16;4.60;99.90
23520;DHT22;11936;50.820;4.336;2023-12-04T10:45:43;4.50;99.90
23520;DHT22;11936;50.820;4.336;2023-12-04T10:48:10;4.50;99.90
23520;DHT22;11936;50.820;4.336;2023-12-04T10:50:40;4.60;99.90
23520;DHT22;11936;50.820;4.336;2023-12-04T10:53:10;4.70;99.90
23520;DHT22;11936;50.820;4.336;2023-12-04T10:55:37;4.80;99.90
23520;DHT22;11936;50.820;4.336;2023-12-04T11:00:38;4.90;99.90
23520;DHT22;11936;50.820;4.336;2023-12-04T11:03:07;5.10;99.90
23520;DHT22;11936;50.820;4.336;2023-12-04T11:05:39;5.00;99.90
23520;DHT22;11936;50.820;4.336;2023-12-04T11:08:07;5.00;99.90
23520;DHT22;11936;50.820;4.336;2023-12-04T11:10:33;5.10;99.90
23520;DHT22;11936;50.820;4.336;2023-12-04T11:13:06;5.10;99.90
23520;DHT22;11936;50.820;4.336;2023-12-04T11:15:37;5.30;99.90
23520;DHT22;11936;50.820;4.336;2023-12-04T11:18:04;5.30;99.90
23520;DHT22;11936;50.820;4.336;2023-12-04T11:20:39;5.30;99.90
23520;DHT22;11936;50.820;4.336;2023-12-04T11:23:05;5.40;99.90
23520;DHT22;11936;50.820;4.336;2023-12-04T11:25:32;5.30;99.90
23520;DHT22;11936;50.820;4.336;2023-12-04T11:28:00;5.20;99.90
23520;DHT22;11936;50.820;4.336;2023-12-04T11:30:27;5.20;99.90
23520;DHT22;11936;50.820;4.336;2023-12-04T11:32:54;5.20;99.90
23520;DHT22;11936;50.820;4.336;2023-12-04T11:35:25;5.30;99.90
23520;DHT22;11936;50.820;4.336;2023-12-04T11:37:52;5.30;99.90
23520;DHT22;11936;50.820;4.336;2023-12-04T11:40:18;5.20;99.90
23520;DHT22;11936;50.820;4.336;2023-12-04T11:42:44;5.30;99.90
23520;DHT22;11936;50.820;4.336;2023-12-04T11:45:10;5.30;99.90
23520;DHT22;11936;50.820;4.336;2023-12-04T11:47:54;5.20;99.90
23520;DHT22;11936;50.820;4.336;2023-12-04T11:50:20;5.20;99.90
23520;DHT22;11936;50.820;4.336;2023-12-04T11:52:46;5.30;99.90
23520;DHT22;11936;50.820;4.336;2023-12-04T11:55:12;5.50;99.90
23520;DHT22;11936;50.820;4.336;2023-12-04T11:57:40;5.40;99.90
23520;DHT22;11936;50.820;4.336;2023-12-04T12:02:48;5.30;99.90
23520;DHT22;11936;50.820;4.336;2023-12-04T12:05:14;5.30;99.90
23520;DHT22;11936;50.820;4.336;2023-12-04T12:07:40;5.30;99.90
23520;DHT22;11936;50.820;4.336;2023-12-04T12:10:07;5.30;99.90
23520;DHT22;11936;50.820;4.336;2023-12-04T12:12:34;5.30;99.90
23520;DHT22;11936;50.820;4.336;2023-12-04T12:15:01;5.30;99.90
23520;DHT22;11936;50.820;4.336;2023-12-04T12:17:27;5.30;99.90
23520;DHT22;11936;50.820;4.336;2023-12-04T12:19:54;5.20;99.90
23520;DHT22;11936;50.820;4.336;2023-12-04T12:22:22;5.30;99.90
23520;DHT22;11936;50.820;4.336;2023-12-04T12:24:47;5.20;99.90
23520;DHT22;11936;50.820;4.336;2023-12-04T12:27:13;5.20;99.90
23520;DHT22;11936;50.820;4.336;2023-12-04T12:29:39;5.40;99.90
23520;DHT22;11936;50.820;4.336;2023-12-04T12:32:04;5.40;99.90
23520;DHT22;11936;50.820;4.336;2023-12-04T12:34:30;5.50;99.90
23520;DHT22;11936;50.820;4.336;2023-12-04T12:36:57;5.50;99.90
23520;DHT22;11936;50.820;4.336;2023-12-04T12:39:22;5.60;99.90
23520;DHT22;11936;50.820;4.336;2023-12-04T12:41:51;5.70;99.90
23520;DHT22;11936;50.820;4.336;2023-12-04T12:44:16;5.80;99.90
23520;DHT22;11936;50.820;4.336;2023-12-04T12:46:46;5.90;99.90
23520;DHT22;11936;50.820;4.336;2023-12-04T12:49:14;5.80;99.90
23520;DHT22;11936;50.820;4.336;2023-12-04T12:51:40;5.90;99.90
23520;DHT22;11936;50.820;4.336;2023-12-04T12:54:05;5.90;99.90
23520;DHT22;11936;50.820;4.336;2023-12-04T12:56:31;5.90;99.90
23520;DHT22;11936;50.820;4.336;2023-12-04T12:58:57;5.80;99.90
23520;DHT22;11936;50.820;4.336;2023-12-04T13:01:23;5.80;99.90
23520;DHT22;11936;50.820;4.336;2023-12-04T13:03:50;5.80;99.90
23520;DHT22;11936;50.820;4.336;2023-12-04T13:06:16;5.80;99.90
23520;DHT22;11936;50.820;4.336;2023-12-04T13:08:43;5.90;99.90
23520;DHT22;11936;50.820;4.336;2023-12-04T13:11:08;5.90;99.90
23520;DHT22;11936;50.820;4.336;2023-12-04T13:13:34;6.00;99.90
23520;DHT22;11936;50.820;4.336;2023-12-04T13:16:00;6.10;99.90
23520;DHT22;11936;50.820;4.336;2023-12-04T13:18:25;6.10;99.90
23520;DHT22;11936;50.820;4.336;2023-12-04T13:20:51;6.10;99.90
23520;DHT22;11936;50.820;4.336;2023-12-04T13:23:16;6.10;99.90
23520;DHT22;11936;50.820;4.336;2023-12-04T13:25:42;6.20;99.90
23520;DHT22;11936;50.820;4.336;2023-12-04T13:28:09;6.30;99.90
23520;DHT22;11936;50.820;4.336;2023-12-04T13:30:34;6.30;99.90
23520;DHT22;11936;50.820;4.336;2023-12-04T13:33:00;6.30;99.90
23520;DHT22;11936;50.820;4.336;2023-12-04T13:35:26;6.30;99.90
23520;DHT22;11936;50.820;4.336;2023-12-04T13:37:52;6.20;99.90
23520;DHT22;11936;50.820;4.336;2023-12-04T13:40:21;6.20;99.90
23520;DHT22;11936;50.820;4.336;2023-12-04T13:42:46;6.10;99.90
23520;DHT22;11936;50.820;4.336;2023-12-04T13:45:30;6.20;99.90
23520;DHT22;11936;50.820;4.336;2023-12-04T13:47:57;6.20;99.90
23520;DHT22;11936;50.820;4.336;2023-12-04T13:50:23;6.30;99.90
23520;DHT22;11936;50.820;4.336;2023-12-04T13:52:48;6.20;99.90
23520;DHT22;11936;50.820;4.336;2023-12-04T13:55:21;6.20;99.90
23520;DHT22;11936;50.820;4.336;2023-12-04T13:58:02;6.20;99.90
23520;DHT22;11936;50.820;4.336;2023-12-04T14:00:27;6.30;99.90
23520;DHT22;11936;50.820;4.336;2023-12-04T14:02:53;6.40;99.90
23520;DHT22;11936;50.820;4.336;2023-12-04T14:05:22;6.30;99.90
23520;DHT22;11936;50.820;4.336;2023-12-04T14:07:48;6.40;99.90
23520;DHT22;11936;50.820;4.336;2023-12-04T14:10:14;6.30;99.90
23520;DHT22;11936;50.820;4.336;2023-12-04T14:12:41;6.40;99.90
23520;DHT22;11936;50.820;4.336;2023-12-04T14:15:06;6.30;99.90
23520;DHT22;11936;50.820;4.336;2023-12-04T14:17:32;6.30;99.90
23520;DHT22;11936;50.820;4.336;2023-12-04T14:19:58;6.30;99.90
23520;DHT22;11936;50.820;4.336;2023-12-04T14:22:24;6.20;99.90
23520;DHT22;11936;50.820;4.336;2023-12-04T14:24:51;6.40;99.90
23520;DHT22;11936;50.820;4.336;2023-12-04T14:27:16;6.30;99.90
23520;DHT22;11936;50.820;4.336;2023-12-04T14:29:42;6.20;99.90
23520;DHT22;11936;50.820;4.336;2023-12-04T14:32:08;6.20;99.90
23520;DHT22;11936;50.820;4.336;2023-12-04T14:34:33;6.30;99.90
23520;DHT22;11936;50.820;4.336;2023-12-04T14:36:59;6.30;99.90
23520;DHT22;11936;50.820;4.336;2023-12-04T14:39:25;6.30;99.90
23520;DHT22;11936;50.820;4.336;2023-12-04T14:41:50;6.50;99.90
23520;DHT22;11936;50.820;4.336;2023-12-04T14:44:16;6.60;99.90
23520;DHT22;11936;50.820;4.336;2023-12-04T14:46:42;6.50;99.90
23520;DHT22;11936;50.820;4.336;2023-12-04T14:49:08;6.60;99.90
23520;DHT22;11936;50.820;4.336;2023-12-04T14:51:33;6.50;99.90
23520;DHT22;11936;50.820;4.336;2023-12-04T14:53:59;6.50;99.90
23520;DHT22;11936;50.820;4.336;2023-12-04T14:56:47;6.50;99.90
23520;DHT22;11936;50.820;4.336;2023-12-04T14:59:16;6.50;99.90
23520;DHT22;11936;50.820;4.336;2023-12-04T15:02:00;6.50;99.90
23520;DHT22;11936;50.820;4.336;2023-12-04T15:04:40;6.40;99.90
23520;DHT22;11936;50.820;4.336;2023-12-04T15:07:25;6.30;99.90
23520;DHT22;11936;50.820;4.336;2023-12-04T15:09:50;6.30;99.90
23520;DHT22;11936;50.820;4.336;2023-12-04T15:12:51;6.50;99.90
23520;DHT22;11936;50.820;4.336;2023-12-04T15:15:31;6.50;99.90
23520;DHT22;11936;50.820;4.336;2023-12-04T15:18:26;6.40;99.90
23520;DHT22;11936;50.820;4.336;2023-12-04T15:21:12;6.40;99.90
23520;DHT22;11936;50.820;4.336;2023-12-04T15:23:38;6.30;99.90
23520;DHT22;11936;50.820;4.336;2023-12-04T15:26:03;6.40;99.90
23520;DHT22;11936;50.820;4.336;2023-12-04T15:28:30;6.50;99.90
23520;DHT22;11936;50.820;4.336;2023-12-04T15:30:56;6.40;99.90
23520;DHT22;11936;50.820;4.336;2023-12-04T15:33:22;6.60;99.90
23520;DHT22;11936;50.820;4.336;2023-12-04T15:35:51;6.60;99.90
23520;DHT22;11936;50.820;4.336;2023-12-04T15:38:17;6.60;99.90
23520;DHT22;11936;50.820;4.336;2023-12-04T15:40:43;6.70;99.90
23520;DHT22;11936;50.820;4.336;2023-12-04T15:43:09;6.70;99.90
23520;DHT22;11936;50.820;4.336;2023-12-04T15:45:34;6.70;99.90
23520;DHT22;11936;50.820;4.336;2023-12-04T15:48:00;6.80;99.90
23520;DHT22;11936;50.820;4.336;2023-12-04T15:50:26;6.80;99.90
23520;DHT22;11936;50.820;4.336;2023-12-04T15:52:51;6.90;99.90
23520;DHT22;11936;50.820;4.336;2023-12-04T15:55:17;6.90;99.90
23520;DHT22;11936;50.820;4.336;2023-12-04T15:57:45;6.80;99.90
23520;DHT22;11936;50.820;4.336;2023-12-04T16:00:11;6.80;99.90
23520;DHT22;11936;50.820;4.336;2023-12-04T16:02:41;6.80;99.90
23520;DHT22;11936;50.820;4.336;2023-12-04T16:05:07;6.90;99.90
23520;DHT22;11936;50.820;4.336;2023-12-04T16:07:36;6.80;99.90
23520;DHT22;11936;50.820;4.336;2023-12-04T16:10:02;6.80;99.90
23520;DHT22;11936;50.820;4.336;2023-12-04T16:12:27;6.80;99.90
23520;DHT22;11936;50.820;4.336;2023-12-04T16:14:53;6.90;99.90
23520;DHT22;11936;50.820;4.336;2023-12-04T16:17:18;6.80;99.90
23520;DHT22;11936;50.820;4.336;2023-12-04T16:19:44;6.80;99.90
23520;DHT22;11936;50.820;4.336;2023-12-04T16:22:10;6.80;99.90
23520;DHT22;11936;50.820;4.336;2023-12-04T16:24:36;6.90;99.90
23520;DHT22;11936;50.820;4.336;2023-12-04T16:27:01;7.00;99.90
23520;DHT22;11936;50.820;4.336;2023-12-04T16:29:27;7.00;99.90
23520;DHT22;11936;50.820;4.336;2023-12-04T16:32:02;7.00;99.90
23520;DHT22;11936;50.820;4.336;2023-12-04T16:34:31;6.90;99.90
23520;DHT22;11936;50.820;4.336;2023-12-04T16:36:56;6.80;99.90
23520;DHT22;11936;50.820;4.336;2023-12-04T16:39:25;6.90;99.90
23520;DHT22;11936;50.820;4.336;2023-12-04T16:41:52;7.00;99.90
23520;DHT22;11936;50.820;4.336;2023-12-04T16:44:18;7.00;99.90
23520;DHT22;11936;50.820;4.336;2023-12-04T16:46:44;7.10;99.90
23520;DHT22;11936;50.820;4.336;2023-12-04T16:49:11;7.20;99.90
23520;DHT22;11936;50.820;4.336;2023-12-04T16:51:36;7.20;99.90
23520;DHT22;11936;50.820;4.336;2023-12-04T16:54:02;7.20;99.90
23520;DHT22;11936;50.820;4.336;2023-12-04T16:56:28;7.20;99.90
23520;DHT22;11936;50.820;4.336;2023-12-04T16:58:56;7.20;99.90
23520;DHT22;11936;50.820;4.336;2023-12-04T17:01:23;7.10;99.90
23520;DHT22;11936;50.820;4.336;2023-12-04T17:03:48;7.20;99.90
23520;DHT22;11936;50.820;4.336;2023-12-04T17:06:14;7.10;99.90
23520;DHT22;11936;50.820;4.336;2023-12-04T17:08:40;7.10;99.90
23520;DHT22;11936;50.820;4.336;2023-12-04T17:11:05;7.20;99.90
23520;DHT22;11936;50.820;4.336;2023-12-04T17:13:32;7.10;99.90
23520;DHT22;11936;50.820;4.336;2023-12-04T17:15:57;7.20;99.90
23520;DHT22;11936;50.820;4.336;2023-12-04T17:18:23;7.20;99.90
23520;DHT22;11936;50.820;4.336;2023-12-04T17:20:49;7.10;99.90
23520;DHT22;11936;50.820;4.336;2023-12-04T17:23:14;7.20;99.90
23520;DHT22;11936;50.820;4.336;2023-12-04T17:25:41;7.10;99.90
23520;DHT22;11936;50.820;4.336;2023-12-04T17:28:06;7.10;99.90
23520;DHT22;11936;50.820;4.336;2023-12-04T17:30:32;7.10;99.90
23520;DHT22;11936;50.820;4.336;2023-12-04T17:32:58;7.10;99.90
23520;DHT22;11936;50.820;4.336;2023-12-04T17:35:25;7.10;99.90
23520;DHT22;11936;50.820;4.336;2023-12-04T17:37:51;7.10;99.90
23520;DHT22;11936;50.820;4.336;2023-12-04T17:40:17;7.10;99.90
23520;DHT22;11936;50.820;4.336;2023-12-04T17:42:44;7.00;99.90
23520;DHT22;11936;50.820;4.336;2023-12-04T17:45:10;7.10;99.90
23520;DHT22;11936;50.820;4.336;2023-12-04T17:47:37;7.10;99.90
23520;DHT22;11936;50.820;4.336;2023-12-04T17:50:03;7.10;99.90